• Join FlightAware (Why Join?)
  • Login
  • US Flag 
01:40AM EDT


 

Airport Tracker/Info


-or-


 

Live Flight TrackerFlight Track Log ✈ NRL950 ✈ 24-Jul-2013 ✈ CYVO - CMB2

Flight Track Log - Related Links

Times and Time Zones

All times are in EDT time to prevent confusion due to time zone crossing. See the NRL950 flight status page for this flight to view local times or setup timezone preferences in your user account.

Time Position Orientation Groundspeed Altitude Reporting Facility
EDT Latitude Longitude Course Direction KTS MPH feet Rate Location/Type
10:16AM 48.7635 -78.2151 338° Northwest  Level FlightAware Approximate
10:17AM 48.8658 -78.2787 338° Northwest  Level FlightAware Approximate
10:18AM 48.9687 -78.3399 339° North  Level FlightAware Approximate
10:18AM 48.7000 -78.1500 337° Northwest 350 403 17,100  Level Montreal Center
10:19AM 49.0719 -78.4002 339° North  Level FlightAware Approximate
10:19AM 48.8000 -78.2167 336° Northwest 360 414 19,000  Level Montreal Center
10:20AM 49.1741 -78.4641 337° Northwest  Level FlightAware Approximate
10:20AM 48.8833 -78.2667 338° Northwest 360 414 21,300  Level Montreal Center
10:21AM 49.2760 -78.5296 337° Northwest  Level FlightAware Approximate
10:21AM 48.9667 -78.3500 327° Northwest 340 391 23,300  Level Montreal Center
10:22AM 49.3762 -78.6001 337° Northwest  Level FlightAware Approximate
10:22AM 49.0500 -78.4000 339° North 360 414 24,400  Level Montreal Center
10:23AM 49.4782 -78.6655 337° Northwest  Level FlightAware Approximate
10:23AM 49.1500 -78.4667 336° Northwest 370 426 24,900  Level Montreal Center
10:24AM 49.2667 -78.5500 335° Northwest 410 472 26,000 1,260 Climbing Montreal Center
10:25AM 49.3500 -78.6000 339° North 370 426 27,500 1,380 Climbing Montreal Center
10:26AM 49.4500 -78.6833 332° Northwest 390 449 28,800 900 Climbing Montreal Center
10:27AM 49.5500 -78.7333 342° North 410 472 29,400 780 Climbing Montreal Center
10:28AM 49.6667 -78.8000 340° North 400 460 30,400 1,020 Climbing Montreal Center
10:29AM 49.7667 -78.8833 332° Northwest 400 460 31,500 840 Climbing Montreal Center
10:30AM 49.8667 -78.9333 342° North 390 449 32,100 300 Climbing Montreal Center
10:31AM 49.9667 -79.0333 327° Northwest 400 460 32,100  Level Montreal Center
10:32AM 50.0667 -79.0833 342° North 400 460 32,100  Level Montreal Center
10:33AM 50.1667 -79.1667 332° Northwest 390 449 32,100  Level Montreal Center
10:34AM 50.2667 -79.2333 337° Northwest 390 449 32,100  Level Montreal Center
10:35AM 50.3833 -79.3167 336° Northwest 400 460 32,100  Level Montreal Center
10:36AM 50.4667 -79.3833 333° Northwest 390 449 32,100  Level Montreal Center
10:37AM 50.5833 -79.4667 336° Northwest 390 449 32,100  Level Montreal Center
10:38AM 50.6833 -79.5167 342° North 390 449 32,100  Level Montreal Center
10:39AM 50.7667 -79.5833 333° Northwest 400 460 32,100  Level Montreal Center
10:40AM 50.8667 -79.6667 332° Northwest 390 449 32,100  Level Montreal Center
10:41AM 50.9667 -79.7333 337° Northwest 390 449 32,100  Level Montreal Center
10:42AM 51.0667 -79.8167 332° Northwest 390 449 32,100  Level Montreal Center
10:43AM 51.1667 -79.8833 337° Northwest 390 449 32,100  Level Montreal Center
10:44AM 51.2667 -79.9667 332° Northwest 390 449 32,100  Level Montreal Center
10:45AM 51.3667 -80.0333 337° Northwest 390 449 32,100  Level Montreal Center
10:46AM 51.4667 -80.1333 328° Northwest 390 449 32,100  Level Montreal Center
10:47AM 51.5667 -80.1833 343° North 400 460 32,100  Level Montreal Center
10:48AM 51.6833 -80.2833 332° Northwest 400 460 32,100  Level Montreal Center
10:49AM 51.7833 -80.3500 338° Northwest 400 460 32,100  Level Montreal Center
10:50AM 51.8833 -80.4167 338° Northwest 410 472 32,100  Level Montreal Center
10:51AM 51.9667 -80.5000 328° Northwest 410 472 32,100  Level Montreal Center
10:52AM 52.0667 -80.5667 338° Northwest 400 460 32,100  Level Montreal Center
10:53AM 52.1833 -80.6667 332° Northwest 400 460 32,100  Level Montreal Center
10:54AM 52.2833 -80.7333 338° Northwest 410 472 32,100  Level Montreal Center
10:55AM 52.3833 -80.8167 333° Northwest 410 472 32,100  Level Montreal Center
10:56AM 52.4833 -80.9167 329° Northwest 400 460 32,100  Level Montreal Center
10:57AM 52.6000 -80.9833 341° North 400 460 32,100  Level Montreal Center
10:58AM 52.7000 -81.0833 329° Northwest 410 472 32,100  Level Montreal Center
10:59AM 52.8000 -81.1500 338° Northwest 410 472 32,100  Level Montreal Center
11:00AM 52.9000 -81.2500 329° Northwest 410 472 32,100  Level Montreal Center
11:01AM 53.0000 -81.3167 338° Northwest 410 472 32,100  Level Montreal Center
11:02AM 53.1167 -81.4167 333° Northwest 420 483 32,100  Level Montreal Center
11:03AM 53.2167 -81.4833 338° Northwest 410 472 32,100  Level Montreal Center
11:04AM 53.3167 -81.5833 329° Northwest 420 483 32,100  Level Montreal Center
11:05AM 53.4167 -81.6833 329° Northwest 420 483 32,100  Level Montreal Center
11:06AM 53.5167 -81.7500 338° Northwest 420 483 32,100  Level Montreal Center
11:07AM 53.6333 -81.8500 333° Northwest 420 483 32,100  Level Montreal Center
11:08AM 53.7333 -81.9167 338° Northwest 420 483 32,100  Level Montreal Center
11:09AM 53.8500 -82.0167 333° Northwest 420 483 32,100  Level Montreal Center
11:10AM 53.9500 -82.0833 339° North 420 483 32,100  Level Montreal Center
11:11AM 54.0333 -82.1833 325° Northwest 410 472 32,100  Level Montreal Center
11:12AM 54.1500 -82.3000 330° Northwest 420 483 32,100  Level Montreal Center
11:13AM 54.2667 -82.3667 342° North 420 483 32,100  Level Montreal Center
11:14AM 54.3667 -82.4667 330° Northwest 420 483 32,100  Level Montreal Center
11:15AM 54.4833 -82.5500 337° Northwest 410 472 32,100  Level Montreal Center
11:16AM 54.5667 -82.6500 325° Northwest 420 483 32,100  Level Montreal Center
11:17AM 54.6667 -82.7167 339° North 420 483 32,100  Level Montreal Center
11:18AM 54.7333 -82.7000 North 420 483 32,100  Level Edmonton Center
11:19AM 54.8833 -82.9333 318° Northwest 420 483 32,100  Level Montreal Center
11:20AM 54.9833 -83.0167 334° Northwest 420 483 32,100  Level Montreal Center
11:21AM 55.0833 -83.1167 330° Northwest 420 483 32,100  Level Montreal Center
11:22AM 55.1833 -83.2000 335° Northwest 410 472 32,100  Level Montreal Center
11:23AM 55.3000 -83.3000 334° Northwest 420 483 32,100  Level Montreal Center
11:24AM 55.3833 -83.4167 322° Northwest 410 472 32,100  Level Montreal Center
11:25AM 55.5000 -83.5167 334° Northwest 420 483 32,100  Level Montreal Center
11:26AM 55.6000 -83.6000 335° Northwest 420 483 32,100  Level Montreal Center
11:27AM 55.7167 -83.7167 331° Northwest 420 483 32,100  Level Montreal Center
11:28AM 55.8000 -83.8167 326° Northwest 420 483 32,100  Level Montreal Center
11:29AM 55.9000 -83.9000 335° Northwest 420 483 32,100  Level Montreal Center
11:30AM 55.9833 -83.8667 13° North 420 483 32,100  Level Edmonton Center
11:31AM 56.0667 -83.9833 322° Northwest 420 483 32,100  Level Edmonton Center
11:32AM 56.1667 -84.0833 331° Northwest 420 483 32,100  Level Edmonton Center
11:34AM 56.3512 -84.2823 329° Northwest  Level FlightAware Approximate
11:41AM 57.0122 -85.0105 335° Northwest  Level FlightAware Approximate
11:42AM 57.1119 -85.0971 335° Northwest  Level FlightAware Approximate
11:43AM 57.2117 -85.1841 335° Northwest  Level FlightAware Approximate
11:44AM 57.3113 -85.2716 335° Northwest  Level FlightAware Approximate
11:45AM 57.4109 -85.3596 335° Northwest  Level FlightAware Approximate
11:46AM 57.5104 -85.4480 334° Northwest  Level FlightAware Approximate
11:47AM 57.6099 -85.5370 334° Northwest  Level FlightAware Approximate
11:48AM 57.7093 -85.6264 334° Northwest  Level FlightAware Approximate
11:49AM 57.8086 -85.7163 334° Northwest  Level FlightAware Approximate
11:50AM 57.9079 -85.8067 334° Northwest  Level FlightAware Approximate
11:51AM 58.0071 -85.8976 334° Northwest  Level FlightAware Approximate
11:52AM 58.1063 -85.9890 334° Northwest  Level FlightAware Approximate
11:53AM 58.2053 -86.0810 334° Northwest  Level FlightAware Approximate
11:54AM 58.3044 -86.1734 334° Northwest  Level FlightAware Approximate
11:55AM 58.4033 -86.2664 334° Northwest  Level FlightAware Approximate
11:56AM 58.5022 -86.3598 334° Northwest  Level FlightAware Approximate
11:57AM 58.6010 -86.4539 334° Northwest  Level FlightAware Approximate
11:58AM 58.6990 -86.5511 331° Northwest  Level FlightAware Approximate
11:59AM 58.7955 -86.6542 331° Northwest  Level FlightAware Approximate
12:00PM 58.8919 -86.7579 331° Northwest  Level FlightAware Approximate
12:01PM 58.9882 -86.8622 331° Northwest  Level FlightAware Approximate
12:02PM 59.0844 -86.9670 331° Northwest  Level FlightAware Approximate
12:03PM 59.1806 -87.0724 331° Northwest  Level FlightAware Approximate
12:04PM 59.2766 -87.1785 331° Northwest  Level FlightAware Approximate
12:05PM 59.3726 -87.2851 330° Northwest  Level FlightAware Approximate
12:06PM 59.4685 -87.3924 330° Northwest  Level FlightAware Approximate
12:07PM 59.5643 -87.5002 330° Northwest  Level FlightAware Approximate
12:08PM 59.6600 -87.6087 330° Northwest  Level FlightAware Approximate
12:09PM 59.7556 -87.7178 330° Northwest  Level FlightAware Approximate
12:10PM 59.8511 -87.8275 330° Northwest  Level FlightAware Approximate
12:11PM 59.9465 -87.9378 330° Northwest  Level FlightAware Approximate
12:12PM 60.0410 -88.0517 328° Northwest  Level FlightAware Approximate
12:13PM 60.1342 -88.1700 328° Northwest  Level FlightAware Approximate
12:14PM 60.2273 -88.2889 328° Northwest  Level FlightAware Approximate
12:15PM 60.3204 -88.4085 328° Northwest  Level FlightAware Approximate
12:16PM 60.4133 -88.5287 327° Northwest  Level FlightAware Approximate
12:17PM 60.5061 -88.6497 327° Northwest  Level FlightAware Approximate
12:18PM 60.5988 -88.7714 327° Northwest  Level FlightAware Approximate
12:19PM 60.6913 -88.8937 327° Northwest  Level FlightAware Approximate
12:20PM 60.7838 -89.0168 327° Northwest  Level FlightAware Approximate
12:21PM 60.8762 -89.1405 327° Northwest  Level FlightAware Approximate
12:22PM 60.9684 -89.2650 327° Northwest  Level FlightAware Approximate
12:23PM 61.0605 -89.3903 327° Northwest  Level FlightAware Approximate
12:24PM 61.1525 -89.5162 327° Northwest  Level FlightAware Approximate
12:25PM 61.2444 -89.6429 326° Northwest  Level FlightAware Approximate
12:26PM 61.3362 -89.7703 326° Northwest  Level FlightAware Approximate
12:27PM 61.4279 -89.8985 326° Northwest  Level FlightAware Approximate
12:28PM 61.5190 -90.0287 324° Northwest  Level FlightAware Approximate
12:29PM 61.6084 -90.1645 324° Northwest  Level FlightAware Approximate
12:30PM 61.6976 -90.3011 324° Northwest  Level FlightAware Approximate
12:31PM 61.7867 -90.4385 324° Northwest  Level FlightAware Approximate
12:32PM 61.8757 -90.5766 324° Northwest  Level FlightAware Approximate
12:33PM 61.9627 -90.7204 319° Northwest  Level FlightAware Approximate
12:34PM 62.0470 -90.8719 323° Northwest  Level FlightAware Approximate
12:35PM 62.1352 -91.0135 323° Northwest  Level FlightAware Approximate
12:36PM 62.2232 -91.1560 323° Northwest  Level FlightAware Approximate
12:37PM 62.3111 -91.2993 323° Northwest  Level FlightAware Approximate
12:38PM 62.3988 -91.4434 323° Northwest  Level FlightAware Approximate
12:39PM 62.4864 -91.5884 323° Northwest  Level FlightAware Approximate
12:40PM 62.5738 -91.7342 322° Northwest  Level FlightAware Approximate
12:41PM 62.6611 -91.8809 322° Northwest  Level FlightAware Approximate
12:42PM 62.7482 -92.0285 322° Northwest  Level FlightAware Approximate
12:43PM 62.8360 -92.1746 324° Northwest  Level FlightAware Approximate
12:44PM 62.9247 -92.3184 324° Northwest  Level FlightAware Approximate
12:45PM 63.0133 -92.4630 323° Northwest  Level FlightAware Approximate
12:46PM 63.1018 -92.6085 323° Northwest  Level FlightAware Approximate
12:47PM 63.1901 -92.7549 323° Northwest  Level FlightAware Approximate
12:48PM 63.2782 -92.9021 323° Northwest  Level FlightAware Approximate
12:49PM 63.3665 -93.0494 323° Northwest  Level FlightAware Approximate
12:50PM 63.4549 -93.1970 323° Northwest  Level FlightAware Approximate
12:51PM 63.5422 -93.3481 323° Northwest  Level FlightAware Approximate
12:52PM 63.6306 -93.4963 323° Northwest  Level FlightAware Approximate
12:53PM 63.7189 -93.6454 323° Northwest  Level FlightAware Approximate
12:54PM 63.8070 -93.7957 322° Northwest  Level FlightAware Approximate
12:55PM 63.8939 -93.9499 322° Northwest  Level FlightAware Approximate
12:56PM 63.9806 -94.1051 322° Northwest  Level FlightAware Approximate
12:57PM 64.0673 -94.2610 322° Northwest  Level FlightAware Approximate
12:58PM 64.1539 -94.4174 322° Northwest  Level FlightAware Approximate
12:59PM 64.2403 -94.5749 322° Northwest  Level FlightAware Approximate
01:00PM 64.3266 -94.7333 322° Northwest  Level FlightAware Approximate
01:01PM 64.4127 -94.8927 321° Northwest  Level FlightAware Approximate
01:02PM 64.4986 -95.0533 321° Northwest  Level FlightAware Approximate
01:03PM 64.5843 -95.2148 321° Northwest  Level FlightAware Approximate
01:04PM 64.6699 -95.3773 321° Northwest  Level FlightAware Approximate
01:05PM 64.7536 -95.5454 318° Northwest  Level FlightAware Approximate
01:06PM 64.8352 -95.7195 328° Northwest  Level FlightAware Approximate
01:07PM 64.9224 -95.8780 320° Northwest  Level FlightAware Approximate
01:08PM 65.0066 -96.0464 320° Northwest  Level FlightAware Approximate
01:09PM 65.0167 -96.0667 320° Northwest  Level FlightAware Approximate
01:10PM 65.0167 -96.0667 320° Northwest  Level FlightAware Approximate
01:11PM 65.0167 -96.0667 320° Northwest  Level FlightAware Approximate
01:12PM 65.0167 -96.0667 320° Northwest  Level FlightAware Approximate
01:13PM 65.0167 -96.0667 320° Northwest  Level FlightAware Approximate
01:14PM 65.0167 -96.0667 320° Northwest  Level FlightAware Approximate
01:15PM 65.0167 -96.0667 320° Northwest  Level FlightAware Approximate
01:16PM 65.0167 -96.0667 320° Northwest  Level FlightAware Approximate
01:17PM 65.0167 -96.0667 320° Northwest  Level FlightAware Approximate
01:18PM 65.0167 -96.0667 320° Northwest  Level FlightAware Approximate
01:19PM 65.0167 -96.0667 320° Northwest  Level FlightAware Approximate
01:20PM 65.0167 -96.0667 320° Northwest  Level FlightAware Approximate
01:21PM 65.0167 -96.0667 320° Northwest  Level FlightAware Approximate
01:22PM 65.0167 -96.0667 320° Northwest  Level FlightAware Approximate